Time;durP1;ratioP1;P1;durP2;ratioP2;P2;SDS_P1;SDS_P2;PMS_P1;PMS_P2;Temp;Humidity;BMP_temperature;BMP_pressure;BME280_temperature;BME280_humidity;BME280_pressure;Samples;Min_cycle;Max_cycle;Signal;HPM_P1;HPM_P2
2022/11/30 00:01:18;;;;;;;60.33;24.50;;;;;;;-2.75;84.78;96125.56;1731293;83;20100;-70
2022/11/30 00:03:46;;;;;;;38.73;17.77;;;;;;;-2.73;85.62;96117.47;1731200;83;21488;-69
2022/11/30 00:06:15;;;;;;;45.63;21.33;;;;;;;-2.68;85.43;96113.37;1731269;83;21094;-70
2022/11/30 00:08:42;;;;;;;50.23;21.13;;;;;;;-2.63;85.28;96120.48;1731342;83;21043;-69
2022/11/30 00:11:16;;;;;;;52.37;21.47;;;;;;;-2.57;85.20;96118.96;1731404;83;21015;-69
2022/11/30 00:13:44;;;;;;;23.13;10.53;;;;;;;-2.61;84.90;96118.84;1731345;83;21087;-69
2022/11/30 00:16:10;;;;;;;27.43;14.23;;;;;;;-2.66;84.62;96121.66;1731437;83;21027;-69
2022/11/30 00:18:37;;;;;;;14.43;8.30;;;;;;;-2.69;84.95;96127.13;1731403;83;21055;-69
2022/11/30 00:21:07;;;;;;;43.20;19.00;;;;;;;-2.70;84.78;96119.75;1731343;83;21485;-69
2022/11/30 00:23:37;;;;;;;27.93;13.60;;;;;;;-2.65;85.77;96123.41;1731637;83;21062;-69
2022/11/30 00:26:07;;;;;;;22.27;11.20;;;;;;;-2.53;86.04;96117.86;1731289;83;21036;-69
2022/11/30 00:28:35;;;;;;;27.53;11.10;;;;;;;-2.53;85.04;96118.28;1731792;83;21043;-69
2022/11/30 00:31:06;;;;;;;16.60;8.80;;;;;;;-2.57;84.79;96117.29;1732250;83;21055;-69
2022/11/30 00:33:35;;;;;;;14.73;8.37;;;;;;;-2.60;84.50;96117.14;1737109;82;21063;-69
2022/11/30 00:36:05;;;;;;;16.73;8.73;;;;;;;-2.65;84.41;96119.95;1737050;82;21485;-69
2022/11/30 00:38:33;;;;;;;19.00;9.00;;;;;;;-2.69;84.95;96111.63;1736724;82;21027;-69
2022/11/30 00:41:00;;;;;;;19.43;10.93;;;;;;;-2.64;85.20;96120.02;1737027;83;21031;-69
2022/11/30 00:43:27;;;;;;;22.97;11.03;;;;;;;-2.57;85.60;96115.09;1737026;83;21027;-69
2022/11/30 00:45:54;;;;;;;17.80;10.27;;;;;;;-2.48;85.44;96111.59;1723719;83;20981;-69
2022/11/30 00:48:21;;;;;;;18.80;10.00;;;;;;;-2.52;84.63;96114.86;1702091;84;21098;-69
2022/11/30 00:50:49;;;;;;;26.40;12.67;;;;;;;-2.52;84.39;96115.77;1736752;83;21043;-69
2022/11/30 00:53:17;;;;;;;18.07;9.13;;;;;;;-2.54;84.57;96113.53;1736443;83;21031;-69
2022/11/30 00:55:45;;;;;;;16.07;8.83;;;;;;;-2.57;84.10;96114.70;1737113;82;21533;-69
2022/11/30 00:58:11;;;;;;;17.23;8.77;;;;;;;-2.64;83.88;96120.02;1736768;82;21047;-69
2022/11/30 01:00:40;;;;;;;12.37;7.03;;;;;;;-2.68;84.19;96112.95;1736988;82;21778;-69
2022/11/30 01:03:07;;;;;;;13.67;7.00;;;;;;;-2.69;84.55;96116.80;1737100;82;21047;-69
2022/11/30 01:05:35;;;;;;;18.07;7.93;;;;;;;-2.71;84.67;96123.17;1737078;82;21497;-69
2022/11/30 01:08:05;;;;;;;16.80;7.93;;;;;;;-2.74;84.48;96122.18;1732076;83;21015;-69
2022/11/30 01:10:34;;;;;;;12.77;7.47;;;;;;;-2.74;84.73;96128.22;1723909;83;21043;-69
2022/11/30 01:13:01;;;;;;;37.07;15.53;;;;;;;-2.75;84.26;96120.39;1701754;84;21084;-69
2022/11/30 01:15:28;;;;;;;24.03;11.27;;;;;;;-2.72;84.46;96125.30;1737091;83;21055;-69
2022/11/30 01:17:55;;;;;;;19.27;7.93;;;;;;;-2.64;85.02;96117.44;1737110;82;21038;-69
2022/11/30 01:20:21;;;;;;;13.07;7.63;;;;;;;-2.60;84.65;96113.27;1737169;83;21035;-69
2022/11/30 01:22:48;;;;;;;12.70;7.20;;;;;;;-2.64;84.47;96113.56;1736810;83;21003;-69
2022/11/30 01:25:15;;;;;;;15.97;8.00;;;;;;;-2.64;84.99;96114.86;1723819;83;21020;-69
2022/11/30 01:27:41;;;;;;;17.67;9.27;;;;;;;-2.59;85.25;96111.17;1701665;84;21081;-69
2022/11/30 01:30:09;;;;;;;23.30;10.30;;;;;;;-2.57;85.10;96112.50;1737110;83;21050;-69
2022/11/30 01:32:37;;;;;;;25.73;11.30;;;;;;;-2.41;85.57;96109.30;1736819;83;21031;-69
2022/11/30 01:35:05;;;;;;;16.30;8.10;;;;;;;-2.46;84.32;96107.38;1723474;83;21036;-69
2022/11/30 01:37:32;;;;;;;13.37;7.13;;;;;;;-2.43;85.03;96099.73;1701867;84;21018;-69
2022/11/30 01:39:58;;;;;;;11.20;5.50;;;;;;;-2.41;84.56;96104.55;1736812;83;21039;-69
2022/11/30 01:42:26;;;;;;;10.87;6.03;;;;;;;-2.43;84.36;96101.02;1736910;82;20968;-69
2022/11/30 01:44:59;;;;;;;7.17;4.83;;;;;;;-2.46;83.97;96103.49;1736925;83;21095;-69
2022/11/30 01:47:32;;;;;;;9.23;5.40;;;;;;;-2.53;83.80;96104.06;1737241;83;21031;-69
2022/11/30 01:50:07;;;;;;;9.55;5.55;;;;;;;-2.56;84.05;96110.00;1737172;83;21039;-69
2022/11/30 01:52:42;;;;;;;8.33;4.53;;;;;;;-2.59;84.44;96103.84;1736967;83;21501;-69
2022/11/30 01:55:32;;;;;;;11.87;5.80;;;;;;;-2.59;84.27;96101.25;1736772;82;21015;-69
2022/11/30 01:58:16;;;;;;;14.07;6.67;;;;;;;-2.58;84.32;96101.30;1736927;83;21031;-69
2022/11/30 02:00:46;;;;;;;16.95;7.62;;;;;;;-2.44;85.55;96100.56;1737115;83;21504;-69
2022/11/30 02:03:25;;;;;;;23.73;11.80;;;;;;;-2.36;85.54;96093.98;1736627;83;20992;-69
2022/11/30 02:05:51;;;;;;;26.33;12.17;;;;;;;-2.30;85.25;96095.50;1723934;83;21012;-69
2022/11/30 02:08:19;;;;;;;26.83;12.97;;;;;;;-2.27;85.14;96096.94;1701812;84;21025;-69
2022/11/30 02:10:50;;;;;;;23.03;11.27;;;;;;;-2.19;85.00;96094.23;1736889;83;21066;-69
2022/11/30 02:13:46;;;;;;;17.90;8.63;;;;;;;-2.19;84.40;96096.81;1737109;83;21011;-69
2022/11/30 02:16:27;;;;;;;22.63;10.53;;;;;;;-2.30;83.66;96102.38;1737037;82;21015;-69
2022/11/30 02:19:24;;;;;;;20.07;8.77;;;;;;;-2.34;84.50;96099.20;1737085;83;21205;-69
2022/11/30 02:22:05;;;;;;;11.37;4.87;;;;;;;-2.37;84.06;96099.95;1715008;83;21026;-69
2022/11/30 02:25:00;;;;;;;13.03;6.70;;;;;;;-2.36;84.73;96095.28;1736885;83;21015;-69
2022/11/30 02:27:38;;;;;;;12.27;6.47;;;;;;;-2.30;84.93;96092.92;1737281;83;21007;-70
2022/11/30 02:30:11;;;;;;;17.17;7.97;;;;;;;-2.18;85.35;96094.69;1736955;83;21478;-70
2022/11/30 02:32:47;;;;;;;;;;;;;;;-2.08;84.97;96092.45;1735706;82;21088;-70
2022/11/30 02:35:18;;;;;;;14.37;7.67;;;;;;;-2.16;83.91;96088.70;1730346;83;20109;-70
2022/11/30 02:37:46;;;;;;;13.50;6.47;;;;;;;-2.19;84.49;96096.81;1731223;83;21007;-70
2022/11/30 02:40:16;;;;;;;16.63;6.87;;;;;;;-2.25;83.83;96088.80;1731305;83;21083;-70
2022/11/30 02:42:43;;;;;;;7.50;3.63;;;;;;;-2.24;84.55;96096.17;1731378;83;21051;-69
2022/11/30 02:45:10;;;;;;;5.73;3.60;;;;;;;-2.28;84.42;96100.74;1731229;83;21384;-70
2022/11/30 02:47:51;;;;;;;8.30;3.50;;;;;;;-2.18;85.15;96093.39;1731218;83;20992;-70
2022/11/30 02:50:27;;;;;;;6.03;3.67;;;;;;;-2.12;84.80;96097.03;1720786;83;21557;-70
2022/11/30 02:52:54;;;;;;;10.43;5.30;;;;;;;-2.07;84.77;96098.96;1731136;83;21027;-70
2022/11/30 02:55:22;;;;;;;14.23;6.50;;;;;;;-2.05;84.54;96093.86;1731308;83;21106;-70
2022/11/30 02:57:49;;;;;;;5.97;3.37;;;;;;;-2.05;84.29;96100.33;1731218;83;21054;-70
2022/11/30 03:00:16;;;;;;;8.87;4.20;;;;;;;-2.10;84.00;96096.27;1731220;83;21011;-70
2022/11/30 03:02:43;;;;;;;8.33;4.23;;;;;;;-2.02;84.73;96105.60;1731297;83;21024;-70
2022/11/30 03:05:10;;;;;;;9.40;4.67;;;;;;;-1.96;84.98;96104.14;1730891;83;21043;-70
2022/11/30 03:07:37;;;;;;;8.27;3.70;;;;;;;-1.92;84.29;96103.83;1731101;83;21015;-70
2022/11/30 03:10:06;;;;;;;6.97;3.97;;;;;;;-1.90;84.32;96100.89;1730817;83;21011;-70
2022/11/30 03:12:32;;;;;;;7.30;4.10;;;;;;;-1.83;84.60;96105.89;1731221;83;21075;-70
2022/11/30 03:14:59;;;;;;;8.03;3.77;;;;;;;-1.91;83.69;96112.49;1731340;83;21007;-70
2022/11/30 03:17:26;;;;;;;7.70;4.67;;;;;;;-1.99;83.08;96108.30;1731300;83;21063;-70
2022/11/30 03:19:53;;;;;;;5.83;2.87;;;;;;;-2.09;83.13;96110.97;1731216;83;21522;-70
2022/11/30 03:22:20;;;;;;;5.40;2.93;;;;;;;-2.10;83.62;96113.48;1731482;83;21071;-69
2022/11/30 03:24:46;;;;;;;6.40;3.40;;;;;;;-2.04;83.99;96113.70;1731228;83;21079;-70
2022/11/30 03:27:13;;;;;;;7.27;3.47;;;;;;;-2.06;83.50;96116.25;1731409;83;21003;-69
2022/11/30 03:29:40;;;;;;;5.77;3.23;;;;;;;-2.05;83.53;96117.12;1731348;83;21039;-69
2022/11/30 03:32:06;;;;;;;6.87;3.40;;;;;;;-2.05;83.80;96118.42;1731179;83;21099;-69
2022/11/30 03:34:33;;;;;;;4.63;2.30;;;;;;;-2.03;83.91;96115.07;1731339;83;21072;-69
2022/11/30 03:36:59;;;;;;;5.00;2.30;;;;;;;-2.01;83.41;96121.61;1731461;83;21059;-69
2022/11/30 03:39:26;;;;;;;9.57;3.50;;;;;;;-2.01;83.73;96125.48;1731331;83;21020;-69
2022/11/30 03:41:52;;;;;;;8.30;3.20;;;;;;;-2.01;83.71;96114.72;1731239;83;21538;-69
2022/11/30 03:44:20;;;;;;;6.87;4.13;;;;;;;-2.00;83.65;96119.48;1731292;83;21044;-69
2022/11/30 03:46:47;;;;;;;11.43;6.20;;;;;;;-1.97;83.82;96119.59;1731469;83;21059;-70
2022/11/30 03:49:13;;;;;;;12.53;7.17;;;;;;;-2.02;83.51;96115.53;1731360;83;21557;-69
2022/11/30 03:51:40;;;;;;;13.87;7.27;;;;;;;-1.94;83.93;96114.55;1731432;83;21070;-70
2022/11/30 03:54:06;;;;;;;14.90;7.60;;;;;;;-1.91;83.45;96114.66;1731475;83;21035;-70
2022/11/30 03:56:33;;;;;;;13.57;7.30;;;;;;;-1.91;83.06;96118.55;1731666;83;20979;-69
2022/11/30 03:59:00;;;;;;;11.90;6.70;;;;;;;-1.97;82.58;96115.70;1731307;83;21043;-69
2022/11/30 04:01:26;;;;;;;17.60;9.67;;;;;;;-2.04;82.80;96118.49;1731337;83;21529;-69
2022/11/30 04:03:53;;;;;;;20.13;13.07;;;;;;;-2.04;82.83;96107.24;1731383;83;21099;-69
2022/11/30 04:06:21;;;;;;;20.17;10.87;;;;;;;-2.12;82.44;96118.59;1731408;83;21544;-70
2022/11/30 04:08:48;;;;;;;8.83;5.33;;;;;;;-2.15;82.43;96118.89;1731012;83;21026;-69
2022/11/30 04:11:14;;;;;;;8.47;4.63;;;;;;;-2.17;82.59;96114.95;1731441;83;21509;-70
2022/11/30 04:13:42;;;;;;;6.07;3.70;;;;;;;-2.24;82.67;96115.14;1731385;83;21075;-69
2022/11/30 04:16:09;;;;;;;7.13;4.47;;;;;;;-2.25;83.17;96117.23;1731340;83;21055;-70
2022/11/30 04:18:37;;;;;;;7.90;4.87;;;;;;;-2.20;83.93;96121.30;1731401;83;21032;-70
2022/11/30 04:21:06;;;;;;;13.27;7.17;;;;;;;-2.23;83.54;96106.97;1731327;83;21008;-70
2022/11/30 04:23:36;;;;;;;15.60;9.07;;;;;;;-2.16;84.27;96111.97;1731077;83;21055;-69
2022/11/30 04:26:12;;;;;;;23.10;13.07;;;;;;;-2.09;84.47;96109.68;1731370;83;21477;-70
2022/11/30 04:28:39;;;;;;;34.07;16.17;;;;;;;-2.12;83.25;96112.55;1731328;83;21027;-70
2022/11/30 04:31:06;;;;;;;29.47;16.13;;;;;;;-2.23;82.78;96110.84;1731207;83;21011;-70
2022/11/30 04:33:33;;;;;;;29.47;15.97;;;;;;;-2.30;82.86;96117.89;1731006;83;21114;-70
2022/11/30 04:36:03;;;;;;;51.00;23.77;;;;;;;-2.26;83.73;96111.61;1731418;83;21473;-69
2022/11/30 04:38:31;;;;;;;31.70;16.33;;;;;;;-2.20;83.68;96108.38;1731130;83;21024;-69
2022/11/30 04:40:58;;;;;;;37.43;18.67;;;;;;;-2.15;84.04;96113.72;1731327;83;21000;-69
2022/11/30 04:43:26;;;;;;;34.60;18.37;;;;;;;-2.10;83.96;96118.23;1731213;83;21027;-70
2022/11/30 04:45:52;;;;;;;30.67;15.77;;;;;;;-2.12;83.11;96112.13;1731403;83;20987;-69
2022/11/30 04:48:19;;;;;;;36.47;18.70;;;;;;;-2.18;83.02;96117.08;1731282;83;21039;-69
2022/11/30 04:50:46;;;;;;;21.30;11.37;;;;;;;-2.29;82.63;96118.38;1731278;83;21087;-69
2022/11/30 04:53:12;;;;;;;11.40;5.60;;;;;;;-2.30;83.43;96123.94;1731248;83;21030;-69
2022/11/30 04:55:39;;;;;;;11.93;6.10;;;;;;;-2.18;84.04;96123.53;1731404;83;21039;-70
2022/11/30 04:58:06;;;;;;;23.27;11.07;;;;;;;-2.13;83.96;96122.42;1731183;83;21017;-70
2022/11/30 05:00:34;;;;;;;29.23;15.60;;;;;;;-2.11;83.66;96124.66;1730847;83;21035;-69
2022/11/30 05:03:01;;;;;;;12.07;7.20;;;;;;;-2.12;83.27;96126.34;1731258;83;21008;-69
2022/11/30 05:05:28;;;;;;;12.40;6.63;;;;;;;-2.26;82.96;96121.08;1731252;83;21051;-70
2022/11/30 05:07:57;;;;;;;4.90;3.30;;;;;;;-2.32;83.06;96124.27;1731129;83;21040;-70
2022/11/30 05:10:26;;;;;;;5.90;3.63;;;;;;;-2.36;83.04;96128.00;1731181;83;21016;-70
2022/11/30 05:12:53;;;;;;;5.80;4.10;;;;;;;-2.42;83.21;96130.81;1731190;83;21027;-69
2022/11/30 05:15:20;;;;;;;9.00;5.03;;;;;;;-2.50;83.23;96128.73;1731384;83;21027;-70
2022/11/30 05:17:47;;;;;;;5.97;3.13;;;;;;;-2.53;83.42;96132.48;1731245;83;21086;-70
2022/11/30 05:20:14;;;;;;;5.57;3.10;;;;;;;-2.53;83.73;96128.20;1730864;83;21023;-70
2022/11/30 05:22:41;;;;;;;6.13;3.40;;;;;;;-2.54;84.05;96121.28;1731391;83;21007;-69
2022/11/30 05:25:09;;;;;;;3.43;2.30;;;;;;;-2.47;84.24;96129.75;1731109;83;21074;-69
2022/11/30 05:27:36;;;;;;;17.57;9.43;;;;;;;-2.47;83.90;96132.72;1731082;83;21051;-69
2022/11/30 05:30:05;;;;;;;8.53;5.37;;;;;;;-2.39;84.27;96133.93;1731341;83;21035;-69
2022/11/30 05:32:31;;;;;;;5.43;3.17;;;;;;;-2.38;84.29;96129.22;1733515;82;21532;-69
2022/11/30 05:34:58;;;;;;;3.00;1.80;;;;;;;-2.40;84.30;96136.02;1740234;82;21567;-69
2022/11/30 05:37:25;;;;;;;17.23;9.57;;;;;;;-2.40;84.34;96134.73;1724647;83;21482;-69
2022/11/30 05:39:51;;;;;;;13.60;7.97;;;;;;;-2.34;84.80;96131.11;1724372;83;21064;-69
2022/11/30 05:42:18;;;;;;;24.27;12.57;;;;;;;-2.27;84.96;96125.75;1724551;83;20980;-69
2022/11/30 05:44:44;;;;;;;4.43;2.53;;;;;;;-2.27;84.66;96124.08;1724599;83;21525;-69
2022/11/30 05:47:11;;;;;;;7.07;3.77;;;;;;;-2.28;84.03;96130.05;1724445;83;20996;-70
2022/11/30 05:49:37;;;;;;;16.70;9.43;;;;;;;-2.26;84.06;96127.53;1724616;83;21525;-70
2022/11/30 05:52:04;;;;;;;27.20;15.50;;;;;;;-2.29;83.92;96128.72;1724612;83;21131;-70
2022/11/30 05:54:32;;;;;;;53.73;29.77;;;;;;;-2.26;84.22;96134.88;1724517;83;21491;-70
2022/11/30 05:56:59;;;;;;;15.40;8.90;;;;;;;-2.26;84.40;96141.75;1724646;83;21023;-70
2022/11/30 05:59:26;;;;;;;4.07;2.77;;;;;;;-2.26;84.06;96146.50;1724519;83;21517;-70
2022/11/30 06:01:52;;;;;;;25.70;11.67;;;;;;;-2.27;84.07;96143.84;1724429;83;21055;-70
2022/11/30 06:04:20;;;;;;;87.73;39.50;;;;;;;-2.26;84.15;96150.80;1724571;83;21079;-70
2022/11/30 06:06:48;;;;;;;69.97;31.23;;;;;;;-2.22;84.90;96148.78;1724646;83;21015;-69
2022/11/30 06:09:15;;;;;;;112.67;50.17;;;;;;;-2.15;84.95;96151.21;1724234;83;20992;-69
2022/11/30 06:11:41;;;;;;;101.83;44.70;;;;;;;-2.13;85.53;96151.73;1724625;83;21035;-69
2022/11/30 06:14:08;;;;;;;75.90;33.73;;;;;;;-2.12;85.54;96153.48;1724483;83;21031;-69
2022/11/30 06:16:38;;;;;;;30.80;16.37;;;;;;;-2.05;85.64;96154.20;1700069;83;20980;-69
2022/11/30 06:19:05;;;;;;;41.43;22.23;;;;;;;-1.91;85.87;96154.75;1724615;83;21100;-69
2022/11/30 06:21:31;;;;;;;66.07;34.00;;;;;;;-1.87;85.28;96157.03;1724516;83;21521;-69
2022/11/30 06:23:58;;;;;;;75.50;37.27;;;;;;;-1.86;85.04;96167.44;1724275;83;21580;-69
2022/11/30 06:26:25;;;;;;;34.40;18.63;;;;;;;-1.80;85.23;96164.20;1724628;83;21051;-69
2022/11/30 06:28:51;;;;;;;52.57;25.00;;;;;;;-1.77;85.02;96163.89;1724379;83;21059;-70
2022/11/30 06:31:18;;;;;;;77.33;34.87;;;;;;;-1.72;85.11;96167.08;1724633;83;21011;-69
2022/11/30 06:33:44;;;;;;;144.47;56.20;;;;;;;-1.74;84.73;96167.00;1722452;83;21047;-70
2022/11/30 06:36:11;;;;;;;101.90;43.77;;;;;;;-1.76;84.90;96170.84;1721403;83;21040;-70
2022/11/30 06:38:37;;;;;;;124.87;57.17;;;;;;;-1.67;85.33;96170.72;1737265;83;21032;-70
2022/11/30 06:41:08;;;;;;;177.37;74.43;;;;;;;-1.63;85.40;96168.30;1736637;83;21023;-69
2022/11/30 06:43:37;;;;;;;129.03;60.33;;;;;;;-1.65;85.38;96175.55;1736831;83;20971;-69
2022/11/30 06:46:05;;;;;;;97.73;45.93;;;;;;;-1.62;85.50;96167.89;1736969;83;21059;-69
2022/11/30 06:48:34;;;;;;;54.33;28.50;;;;;;;-1.50;85.83;96176.11;1736730;83;21023;-69
2022/11/30 06:51:06;;;;;;;51.43;27.90;;;;;;;-1.37;85.75;96178.73;1723791;83;21012;-69
2022/11/30 06:53:32;;;;;;;54.87;26.10;;;;;;;-1.29;85.35;96185.48;1702007;84;21021;-69
2022/11/30 06:56:06;;;;;;;44.43;23.30;;;;;;;-1.23;85.24;96171.48;1736796;83;21031;-70
2022/11/30 06:58:33;;;;;;;68.47;34.27;;;;;;;-1.17;84.90;96174.28;1737117;83;21031;-69
2022/11/30 07:00:59;;;;;;;39.37;20.77;;;;;;;-1.15;84.65;96172.63;1737090;83;21094;-69
2022/11/30 07:03:27;;;;;;;91.80;38.17;;;;;;;-1.11;84.90;96172.80;1736956;83;21027;-68
2022/11/30 07:05:54;;;;;;;80.43;43.50;;;;;;;-1.05;85.00;96165.65;1737009;83;21016;-68
2022/11/30 07:08:20;;;;;;;90.30;51.50;;;;;;;-1.01;84.65;96171.80;1737234;82;21026;-69
2022/11/30 07:10:47;;;;;;;67.07;34.03;;;;;;;-1.09;84.73;96171.11;1736810;82;21027;-69
2022/11/30 07:13:18;;;;;;;55.87;32.43;;;;;;;-1.03;84.99;96168.27;1737325;82;20995;-69
2022/11/30 07:15:45;;;;;;;50.70;32.47;;;;;;;-0.93;85.27;96168.67;1737213;83;21031;-69
2022/11/30 07:18:12;;;;;;;48.63;27.03;;;;;;;-0.82;85.43;96169.03;1736837;82;21078;-69
2022/11/30 07:20:39;;;;;;;70.70;39.20;;;;;;;-0.71;85.30;96169.39;1737221;83;21042;-69
2022/11/30 07:26:12;;;;;;;75.00;41.60;;;;;;;-0.45;85.30;96167.27;1736564;83;21070;-69
2022/11/30 07:28:42;;;;;;;77.80;40.77;;;;;;;-0.37;84.83;96168.81;1736324;83;21015;-69
2022/11/30 07:31:21;;;;;;;73.03;39.37;;;;;;;-0.32;84.32;96163.36;1737158;82;21015;-69
2022/11/30 07:33:50;;;;;;;42.30;25.83;;;;;;;-0.31;84.24;96165.53;1736860;82;21120;-69
2022/11/30 07:36:19;;;;;;;49.93;28.37;;;;;;;-0.32;84.26;96165.08;1736916;83;21039;-69
2022/11/30 07:38:46;;;;;;;76.10;43.23;;;;;;;-0.35;84.19;96162.36;1725777;83;21078;-68
2022/11/30 07:41:13;;;;;;;83.67;46.40;;;;;;;-0.44;84.31;96161.23;1723701;83;21481;-69
2022/11/30 07:43:40;;;;;;;75.60;44.77;;;;;;;-0.41;84.61;96164.77;1706307;84;21065;-68
2022/11/30 07:46:09;;;;;;;65.97;38.90;;;;;;;-0.35;84.79;96165.86;1723693;83;21019;-68
2022/11/30 07:48:36;;;;;;;38.03;22.53;;;;;;;-0.29;84.87;96156.97;1695554;84;21527;-68
2022/11/30 07:51:15;;;;;;;29.43;20.67;;;;;;;-0.20;84.83;96159.37;1737097;83;21012;-68
2022/11/30 07:53:42;;;;;;;31.70;18.70;;;;;;;-0.12;84.54;96156.22;1736875;83;21050;-68
2022/11/30 07:56:14;;;;;;;33.60;20.87;;;;;;;-0.05;84.42;96152.98;1737001;82;21055;-68
2022/11/30 07:58:41;;;;;;;36.57;23.67;;;;;;;-0.01;84.21;96154.82;1737180;82;21135;-68
2022/11/30 08:01:12;;;;;;;27.73;18.80;;;;;;;0.05;84.22;96155.84;1736573;83;21071;-68
2022/11/30 08:03:39;;;;;;;24.53;16.30;;;;;;;0.14;84.29;96156.13;1702034;84;21074;-67
2022/11/30 08:06:13;;;;;;;23.93;15.73;;;;;;;0.17;83.92;96154.50;1737019;83;21039;-68
2022/11/30 08:08:41;;;;;;;;;;;;;;;0.25;84.08;96152.56;1739589;82;21042;-68
2022/11/30 08:11:12;;;;;;;36.87;24.23;;;;;;;0.33;83.57;96157.16;1736926;83;20101;-68
2022/11/30 08:13:39;;;;;;;41.57;25.43;;;;;;;0.40;83.57;96155.22;1723840;83;21036;-68
2022/11/30 08:16:15;;;;;;;45.67;25.13;;;;;;;0.48;83.28;96161.92;1723940;83;21546;-68
2022/11/30 08:18:42;;;;;;;35.40;17.70;;;;;;;0.52;83.18;96164.18;1723619;83;21044;-68
2022/11/30 08:21:14;;;;;;;63.43;29.37;;;;;;;0.47;82.76;96163.17;1701690;84;21536;-67
2022/11/30 08:23:44;;;;;;;34.60;20.10;;;;;;;0.55;82.92;96166.86;1737026;83;21074;-67
2022/11/30 08:26:17;;;;;;;46.20;28.37;;;;;;;0.57;82.81;96172.56;1736938;83;21026;-67
2022/11/30 08:28:45;;;;;;;37.85;22.42;;;;;;;0.66;83.07;96172.39;1737075;82;21070;-68
2022/11/30 08:31:20;;;;;;;28.20;18.40;;;;;;;0.61;82.70;96179.61;1736858;83;21433;-68
2022/11/30 08:33:47;;;;;;;46.70;27.33;;;;;;;0.74;83.09;96173.48;1689672;84;21036;-67
2022/11/30 08:36:19;;;;;;;25.03;14.73;;;;;;;0.83;83.08;96174.63;1693939;85;21087;-68
2022/11/30 08:38:47;;;;;;;24.03;13.70;;;;;;;0.90;83.26;96168.28;1704547;84;21043;-68
2022/11/30 08:41:18;;;;;;;31.23;19.20;;;;;;;0.98;82.98;96168.07;1704215;84;21513;-68
2022/11/30 08:43:45;;;;;;;40.90;23.77;;;;;;;1.00;82.12;96175.07;1704420;84;21530;-68
2022/11/30 08:46:14;;;;;;;36.23;23.37;;;;;;;1.02;82.28;96169.50;1704517;83;21046;-68
2022/11/30 08:48:41;;;;;;;49.07;27.73;;;;;;;1.06;82.02;96167.89;1704242;83;21098;-68
2022/11/30 08:51:13;;;;;;;53.70;29.03;;;;;;;1.07;81.84;96170.93;1703880;84;21082;-68
2022/11/30 08:53:40;;;;;;;55.03;29.13;;;;;;;1.04;81.80;96169.13;1704553;84;21091;-68
2022/11/30 08:56:13;;;;;;;43.80;23.97;;;;;;;1.10;81.87;96169.70;1704228;84;21063;-68
2022/11/30 08:58:40;;;;;;;;;;;;;;;1.16;82.19;96166.39;1707050;84;21451;-68
2022/11/30 09:01:15;;;;;;;39.47;21.03;;;;;;;1.19;81.80;96172.56;1704686;84;20099;-68
2022/11/30 09:03:43;;;;;;;55.40;26.57;;;;;;;1.18;81.67;96170.78;1704764;83;21023;-68
2022/11/30 09:06:25;;;;;;;48.07;26.30;;;;;;;1.23;81.67;96165.72;1704450;84;21039;-67
2022/11/30 09:08:59;;;;;;;43.43;22.23;;;;;;;1.32;81.62;96157.30;1704486;83;21023;-67
2022/11/30 09:11:28;;;;;;;30.40;15.80;;;;;;;1.43;81.65;96150.63;1702875;84;21144;-67
2022/11/30 09:13:58;;;;;;;42.98;23.38;;;;;;;1.41;80.28;96151.91;1704612;83;21047;-67
2022/11/30 09:16:27;;;;;;;72.70;44.93;;;;;;;1.35;80.87;96150.44;1704527;84;21075;-67
2022/11/30 09:18:54;;;;;;;46.93;28.30;;;;;;;1.44;80.92;96143.31;1704457;84;21011;-67
2022/11/30 09:21:23;;;;;;;42.57;23.53;;;;;;;1.46;81.15;96146.41;1704501;84;21451;-67
2022/11/30 09:23:51;;;;;;;31.97;20.33;;;;;;;1.57;81.28;96140.17;1704186;84;21051;-68
2022/11/30 09:26:22;;;;;;;35.30;23.53;;;;;;;1.68;81.12;96138.70;1704388;83;21042;-67
2022/11/30 09:28:49;;;;;;;23.37;14.10;;;;;;;1.67;80.47;96142.58;1704644;83;21027;-68
2022/11/30 09:31:20;;;;;;;33.83;24.40;;;;;;;1.68;80.01;96137.83;1704283;84;21087;-68
2022/11/30 09:33:47;;;;;;;29.43;18.87;;;;;;;1.70;80.32;96132.24;1719907;81;21039;-68
2022/11/30 09:36:19;;;;;;;29.67;16.13;;;;;;;1.75;80.14;96127.16;1760579;81;21131;-68
2022/11/30 09:38:46;;;;;;;24.33;15.13;;;;;;;1.73;79.99;96132.31;1760273;81;21011;-68
2022/11/30 09:41:41;;;;;;;71.70;32.23;;;;;;;1.69;80.21;96130.06;1760546;81;21028;-68
2022/11/30 09:44:33;;;;;;;70.57;31.90;;;;;;;1.75;80.32;96133.66;1742013;82;21096;-68
2022/11/30 09:47:24;;;;;;;82.50;38.47;;;;;;;1.76;80.27;96132.80;1723757;83;21052;-68
2022/11/30 09:49:51;;;;;;;75.87;40.20;;;;;;;1.80;80.21;96132.05;1744936;82;21087;-68
2022/11/30 09:52:23;;;;;;;88.10;48.57;;;;;;;1.79;80.30;96131.56;1744710;82;21037;-68
2022/11/30 09:54:50;;;;;;;83.73;41.17;;;;;;;1.89;80.30;96126.64;1744752;82;21034;-67
2022/11/30 09:57:40;;;;;;;51.97;29.33;;;;;;;2.01;80.66;96125.15;1744705;82;21027;-67
2022/11/30 10:00:15;;;;;;;39.43;24.07;;;;;;;2.10;80.11;96130.15;1742153;82;21518;-68
2022/11/30 10:02:42;;;;;;;25.53;15.73;;;;;;;2.29;80.09;96119.73;1744049;82;21019;-67
2022/11/30 10:05:27;;;;;;;16.93;11.00;;;;;;;2.45;79.95;96117.03;1744995;82;21470;-67
2022/11/30 10:08:17;;;;;;;21.30;14.17;;;;;;;2.62;78.84;96114.78;1742518;82;21047;-67
2022/11/30 10:11:14;;;;;;;20.70;11.37;;;;;;;2.97;79.44;96104.14;1744774;82;21039;-68
2022/11/30 10:13:55;;;;;;;31.30;19.10;;;;;;;3.35;79.50;96103.96;1744791;82;21021;-68
2022/11/30 10:16:43;;;;;;;15.63;9.80;;;;;;;3.64;77.51;96094.02;1745127;82;21569;-68
2022/11/30 10:19:18;;;;;;;13.70;9.20;;;;;;;3.95;78.01;96094.06;1744829;82;21046;-68
2022/11/30 10:22:11;;;;;;;35.77;21.20;;;;;;;4.06;74.47;96079.45;1744550;82;21107;-68
2022/11/30 10:25:15;;;;;;;16.87;9.90;;;;;;;4.34;74.19;96087.67;1744668;82;21035;-69
2022/11/30 10:28:03;;;;;;;12.35;8.13;;;;;;;4.59;73.34;96087.99;1744620;82;21046;-69
2022/11/30 10:30:34;;;;;;;12.43;7.70;;;;;;;4.78;74.08;96086.03;1745216;82;21015;-69
2022/11/30 10:33:15;;;;;;;17.33;10.33;;;;;;;4.99;72.44;96080.19;1744563;82;21188;-68
2022/11/30 10:35:55;;;;;;;12.93;8.47;;;;;;;5.20;72.46;96083.44;1741349;81;21560;-69
2022/11/30 10:38:33;;;;;;;61.17;32.67;;;;;;;5.42;70.92;96075.37;1742059;82;21110;-69
2022/11/30 10:41:17;;;;;;;44.23;23.47;;;;;;;5.55;70.96;96070.68;1728971;83;21144;-69
2022/11/30 10:43:58;;;;;;;63.78;39.08;;;;;;;5.39;69.28;96070.98;1734575;83;21067;-68
2022/11/30 10:46:35;;;;;;;97.20;58.10;;;;;;;5.24;69.94;96065.62;1735082;83;21488;-69
2022/11/30 10:49:06;;;;;;;110.93;74.50;;;;;;;5.05;69.83;96075.44;1734516;83;21521;-68
2022/11/30 10:51:38;;;;;;;40.57;28.73;;;;;;;4.90;70.33;96078.77;1734531;82;21023;-68
2022/11/30 10:54:20;;;;;;;25.87;17.10;;;;;;;4.74;70.48;96077.72;1734512;83;21035;-69
2022/11/30 10:56:47;;;;;;;36.75;27.42;;;;;;;4.52;71.06;96082.67;1734558;83;21457;-68
2022/11/30 10:59:43;;;;;;;51.07;43.43;;;;;;;4.44;71.78;96079.53;1734457;82;21507;-69
2022/11/30 11:02:36;;;;;;;190.80;110.67;;;;;;;4.41;72.15;96085.99;1734657;82;21062;-68
2022/11/30 11:05:14;;;;;;;30.12;19.35;;;;;;;4.39;72.19;96078.59;1734607;83;21545;-69
2022/11/30 11:07:55;;;;;;;57.63;38.33;;;;;;;4.30;72.13;96080.20;1734827;83;21131;-69
2022/11/30 11:10:46;;;;;;;43.70;29.47;;;;;;;4.18;72.40;96081.33;1734395;83;21143;-69
2022/11/30 11:13:38;;;;;;;70.10;48.00;;;;;;;4.17;73.01;96085.25;1734462;83;21072;-69
2022/11/30 11:16:10;;;;;;;17.73;12.97;;;;;;;4.19;73.26;96080.50;1734255;82;21528;-69
2022/11/30 11:18:52;;;;;;;16.63;11.00;;;;;;;4.30;73.19;96081.94;1734473;82;21524;-69
2022/11/30 11:21:22;;;;;;;28.23;17.67;;;;;;;4.42;73.60;96079.93;1733935;82;21072;-69
2022/11/30 11:23:57;;;;;;;18.60;13.80;;;;;;;4.63;73.75;96076.27;1734288;83;21034;-69
2022/11/30 11:26:29;;;;;;;20.73;11.10;;;;;;;4.75;73.40;96071.18;1734502;83;21023;-68
2022/11/30 11:29:01;;;;;;;18.13;10.70;;;;;;;4.85;72.42;96075.22;1734597;82;21015;-68
2022/11/30 11:31:36;;;;;;;16.20;11.23;;;;;;;4.91;72.17;96073.56;1734532;82;21012;-68
2022/11/30 11:34:07;;;;;;;18.40;12.37;;;;;;;5.01;72.77;96066.66;1734120;82;21072;-69
2022/11/30 11:36:37;;;;;;;17.10;11.13;;;;;;;5.15;71.77;96065.52;1734631;83;21067;-69
2022/11/30 11:39:09;;;;;;;20.40;11.60;;;;;;;5.14;71.13;96065.05;1734357;83;21000;-68
2022/11/30 11:41:38;;;;;;;14.60;9.97;;;;;;;5.24;70.97;96059.48;1728855;83;21088;-68
2022/11/30 11:44:13;;;;;;;15.70;11.27;;;;;;;5.24;71.14;96064.31;1734531;83;21504;-69